createdAt,value
2017-10-22T00:00:01.018Z,84.23
2017-10-22T00:02:28.564Z,81.83
2017-10-22T00:04:56.054Z,83.00
2017-10-22T00:07:23.548Z,85.33
2017-10-22T00:09:51.048Z,81.70
2017-10-22T00:12:18.543Z,81.67
2017-10-22T00:14:46.044Z,79.77
2017-10-22T00:17:14.508Z,84.30
2017-10-22T00:19:42.004Z,78.33
2017-10-22T00:22:09.502Z,79.90
2017-10-22T00:24:37.012Z,85.53
2017-10-22T00:27:04.503Z,81.23
2017-10-22T00:29:31.995Z,81.93
2017-10-22T00:31:59.485Z,80.97
2017-10-22T00:34:27.758Z,83.23
2017-10-22T00:36:56.665Z,80.20
2017-10-22T00:39:24.175Z,82.53
2017-10-22T00:41:51.675Z,84.23
2017-10-22T00:44:19.171Z,84.67
2017-10-22T00:46:46.672Z,84.50
2017-10-22T00:49:14.959Z,84.50
2017-10-22T00:51:43.228Z,84.87
2017-10-22T00:54:11.490Z,89.50
2017-10-22T00:56:38.988Z,86.20
2017-10-22T00:59:06.477Z,87.80
2017-10-22T01:01:33.963Z,92.20
2017-10-22T01:04:01.460Z,87.80
2017-10-22T01:06:29.722Z,88.10
2017-10-22T01:08:57.981Z,92.37
2017-10-22T01:11:25.496Z,97.00
2017-10-22T01:13:52.990Z,90.07
2017-10-22T01:16:20.494Z,93.57
2017-10-22T01:18:48.757Z,95.07
2017-10-22T01:21:17.024Z,88.80
2017-10-22T01:23:44.514Z,94.30
2017-10-22T01:26:12.011Z,83.47
2017-10-22T01:28:39.521Z,88.70
2017-10-22T01:31:07.782Z,94.07
2017-10-22T01:33:36.044Z,93.90
2017-10-22T01:36:03.548Z,93.63
2017-10-22T01:38:31.036Z,93.00
2017-10-22T01:40:58.521Z,79.40
2017-10-22T01:43:26.031Z,90.20
2017-10-22T01:45:53.521Z,91.87
2017-10-22T01:48:21.019Z,93.50
2017-10-22T01:50:49.271Z,91.60
2017-10-22T01:53:16.777Z,86.93
2017-10-22T01:55:44.265Z,94.90
2017-10-22T01:58:11.768Z,97.47
2017-10-22T02:00:40.032Z,100.43
2017-10-22T02:03:07.525Z,99.07
2017-10-22T02:05:35.790Z,94.43
2017-10-22T02:08:04.059Z,89.80
2017-10-22T02:10:31.561Z,95.37
2017-10-22T02:12:59.060Z,95.73
2017-10-22T02:15:26.561Z,100.37
2017-10-22T02:17:54.062Z,98.60
2017-10-22T02:20:21.562Z,99.53
2017-10-22T02:22:49.827Z,103.57
2017-10-22T02:25:17.339Z,101.00
2017-10-22T02:27:44.834Z,97.07
2017-10-22T02:30:12.343Z,102.17
2017-10-22T02:32:39.844Z,106.80
2017-10-22T02:35:07.353Z,102.93
2017-10-22T02:37:34.845Z,107.97
2017-10-22T02:40:02.349Z,108.10
2017-10-22T02:42:30.611Z,109.37
2017-10-22T02:44:58.118Z,102.57
2017-10-22T02:47:25.618Z,91.73
2017-10-22T02:49:53.107Z,93.47
2017-10-22T02:52:21.364Z,94.67
2017-10-22T02:54:48.864Z,89.10
2017-10-22T02:57:16.364Z,93.03
2017-10-22T02:59:44.640Z,89.27
2017-10-22T03:02:12.900Z,92.20
2017-10-22T03:04:40.391Z,91.27
2017-10-22T03:07:07.890Z,93.10
2017-10-22T03:09:36.147Z,95.30
2017-10-22T03:12:04.428Z,89.53
2017-10-22T03:14:32.700Z,95.03
2017-10-22T03:17:00.977Z,90.87
2017-10-22T03:19:28.476Z,92.57
2017-10-22T03:21:55.975Z,94.23
2017-10-22T03:24:23.480Z,99.50
2017-10-22T03:26:50.980Z,91.77
2017-10-22T03:29:18.479Z,94.00
2017-10-22T03:31:46.747Z,99.97
2017-10-22T03:34:14.242Z,98.40
2017-10-22T03:36:41.761Z,104.60
2017-10-22T03:39:09.260Z,100.87
2017-10-22T03:41:36.755Z,101.43
2017-10-22T03:44:04.238Z,99.03
2017-10-22T03:46:31.740Z,100.70
2017-10-22T03:48:59.230Z,103.00
2017-10-22T03:51:26.731Z,109.37
2017-10-22T03:53:55.012Z,105.43
2017-10-22T03:56:23.284Z,98.30
2017-10-22T03:58:51.564Z,100.50
2017-10-22T04:01:19.822Z,98.23
2017-10-22T04:03:47.323Z,107.73
2017-10-22T04:06:14.822Z,99.13
2017-10-22T04:08:42.323Z,102.20
2017-10-22T04:11:10.592Z,105.67
2017-10-22T04:13:38.855Z,104.23
2017-10-22T04:16:06.392Z,110.67
2017-10-22T04:18:34.655Z,106.43
2017-10-22T04:21:02.155Z,113.80
2017-10-22T04:23:29.668Z,104.73
2017-10-22T04:25:57.176Z,106.63
2017-10-22T04:28:24.682Z,112.03
2017-10-22T04:30:52.186Z,106.07
2017-10-22T04:33:19.688Z,102.67
2017-10-22T04:35:47.183Z,102.87
2017-10-22T04:38:14.669Z,106.80
2017-10-22T04:40:42.158Z,115.87
2017-10-22T04:43:10.418Z,107.17
2017-10-22T04:45:38.684Z,110.57
2017-10-22T04:48:06.179Z,114.20
2017-10-22T04:50:33.667Z,110.80
2017-10-22T04:53:01.150Z,122.53
2017-10-22T04:55:28.654Z,131.60
2017-10-22T04:57:56.149Z,121.37
2017-10-22T05:00:23.651Z,127.20
2017-10-22T05:02:51.902Z,98.73
2017-10-22T05:05:19.392Z,129.07
2017-10-22T05:07:47.645Z,124.70
2017-10-22T05:10:15.142Z,124.60
2017-10-22T05:12:43.395Z,132.50
2017-10-22T05:15:11.669Z,130.80
2017-10-22T05:17:39.172Z,135.13
2017-10-22T05:20:06.669Z,114.03
2017-10-22T05:22:34.163Z,128.40
2017-10-22T05:25:02.441Z,142.47
2017-10-22T05:27:30.815Z,132.87
2017-10-22T05:29:59.078Z,135.13
2017-10-22T05:32:27.125Z,143.47
2017-10-22T05:34:54.626Z,131.67
2017-10-22T05:37:22.903Z,140.70
2017-10-22T05:39:51.170Z,129.87
2017-10-22T05:42:20.337Z,143.00
2017-10-22T05:44:47.832Z,148.90
2017-10-22T05:47:16.112Z,150.90
2017-10-22T05:49:44.374Z,149.60
2017-10-22T05:52:11.875Z,144.87
2017-10-22T05:54:39.387Z,148.03
2017-10-22T05:57:06.878Z,151.03
2017-10-22T05:59:35.137Z,146.20
2017-10-22T06:02:02.631Z,144.27
2017-10-22T06:04:30.114Z,143.43
2017-10-22T06:06:57.612Z,158.80
2017-10-22T06:09:25.111Z,148.00
2017-10-22T06:11:52.615Z,160.07
2017-10-22T06:14:20.106Z,149.67
2017-10-22T06:16:48.372Z,155.63
2017-10-22T06:19:16.630Z,150.73
2017-10-22T06:21:44.145Z,145.90
2017-10-22T06:24:11.648Z,157.70
2017-10-22T06:26:39.150Z,163.57
2017-10-22T06:29:06.641Z,153.53
2017-10-22T06:31:34.147Z,153.83
2017-10-22T06:34:02.732Z,164.80
2017-10-22T06:36:30.995Z,151.70
2017-10-22T06:38:58.502Z,153.53
2017-10-22T06:41:26.003Z,170.00
2017-10-22T06:43:53.499Z,160.20
2017-10-22T06:46:21.762Z,168.23
2017-10-22T06:48:50.023Z,170.70
2017-10-22T06:51:17.501Z,178.20
2017-10-22T06:53:45.755Z,173.57
2017-10-22T06:56:13.253Z,180.33
2017-10-22T06:58:41.502Z,171.20
2017-10-22T07:01:08.998Z,185.83
2017-10-22T07:03:36.491Z,181.90
2017-10-22T07:06:03.992Z,180.53
2017-10-22T07:08:32.247Z,174.80
2017-10-22T07:10:59.742Z,169.50
2017-10-22T07:13:27.999Z,173.20
2017-10-22T07:15:55.485Z,179.37
2017-10-22T07:18:22.974Z,172.53
2017-10-22T07:20:50.463Z,169.40
2017-10-22T07:23:17.964Z,177.57
2017-10-22T07:25:45.447Z,173.53
2017-10-22T07:28:12.942Z,172.67
2017-10-22T07:30:40.426Z,176.37
2017-10-22T07:33:08.692Z,174.80
2017-10-22T07:35:36.951Z,168.17
2017-10-22T07:38:04.435Z,182.20
2017-10-22T07:40:32.686Z,174.87
2017-10-22T07:43:00.173Z,193.87
2017-10-22T07:45:28.421Z,186.47
2017-10-22T07:47:55.904Z,173.43
2017-10-22T07:50:24.158Z,176.43
2017-10-22T07:52:51.651Z,171.20
2017-10-22T07:55:19.916Z,165.23
2017-10-22T07:57:48.183Z,174.60
2017-10-22T08:00:15.665Z,176.63
2017-10-22T08:02:43.914Z,169.53
2017-10-22T08:05:11.398Z,176.23
2017-10-22T08:07:39.650Z,181.33
2017-10-22T08:10:07.141Z,173.73
2017-10-22T08:12:34.634Z,166.30
2017-10-22T08:15:02.135Z,163.57
2017-10-22T08:17:30.396Z,168.97
2017-10-22T08:19:57.885Z,184.13
2017-10-22T08:22:26.138Z,169.13
2017-10-22T08:24:53.631Z,173.13
2017-10-22T08:27:21.132Z,170.07
2017-10-22T08:29:49.396Z,159.03
2017-10-22T08:32:16.882Z,168.97
2017-10-22T08:34:44.388Z,167.27
2017-10-22T08:37:11.885Z,160.60
2017-10-22T08:39:39.401Z,162.07
2017-10-22T08:42:06.907Z,158.83
2017-10-22T08:44:34.410Z,153.90
2017-10-22T08:47:02.683Z,157.37
2017-10-22T08:49:30.943Z,161.23
2017-10-22T08:51:58.452Z,161.33
2017-10-22T08:54:25.938Z,146.40
2017-10-22T08:56:53.416Z,153.57
2017-10-22T08:59:20.908Z,150.03
2017-10-22T09:01:49.163Z,145.00
2017-10-22T09:04:16.660Z,144.37
2017-10-22T09:06:44.159Z,141.70
2017-10-22T09:09:11.650Z,146.47
2017-10-22T09:11:39.910Z,149.47
2017-10-22T09:14:07.395Z,148.10
2017-10-22T09:16:35.658Z,143.03
2017-10-22T09:19:03.170Z,150.13
2017-10-22T09:21:30.670Z,145.87
2017-10-22T09:23:58.156Z,149.50
2017-10-22T09:26:25.648Z,151.67
2017-10-22T09:28:53.140Z,148.57
2017-10-22T09:31:20.639Z,145.67
2017-10-22T09:33:48.125Z,143.37
2017-10-22T09:36:15.683Z,138.40
2017-10-22T09:38:43.184Z,146.60
2017-10-22T09:41:10.670Z,137.23
2017-10-22T09:43:38.926Z,139.53
2017-10-22T09:46:06.415Z,134.40
2017-10-22T09:48:33.926Z,135.90
2017-10-22T09:51:01.418Z,143.70
2017-10-22T09:53:29.678Z,138.83
2017-10-22T09:55:57.171Z,135.27
2017-10-22T09:58:24.667Z,131.83
2017-10-22T10:00:52.171Z,128.50
2017-10-22T10:03:20.435Z,129.73
2017-10-22T10:05:47.923Z,132.07
2017-10-22T10:08:15.872Z,141.30
2017-10-22T10:10:44.135Z,135.83
2017-10-22T10:13:12.407Z,126.80
2017-10-22T10:15:39.891Z,133.20
2017-10-22T10:18:08.200Z,132.67
2017-10-22T10:20:35.693Z,127.20
2017-10-22T10:23:03.200Z,124.30
2017-10-22T10:25:30.685Z,166.67
2017-10-22T10:27:58.196Z,134.43
2017-10-22T10:30:25.682Z,123.27
2017-10-22T10:32:53.179Z,125.30
2017-10-22T10:35:20.661Z,170.87
2017-10-22T10:37:48.160Z,135.43
2017-10-22T10:40:15.649Z,176.70
2017-10-22T10:42:43.140Z,140.00
2017-10-22T10:45:10.672Z,144.67
2017-10-22T10:47:38.167Z,121.60
2017-10-22T10:50:06.425Z,130.47
2017-10-22T10:52:33.927Z,124.77
2017-10-22T10:55:01.423Z,123.70
2017-10-22T10:57:28.939Z,122.40
2017-10-22T10:59:57.250Z,110.00
2017-10-22T11:02:24.751Z,105.43
2017-10-22T11:04:52.246Z,103.87
2017-10-22T11:07:19.730Z,96.60
2017-10-22T11:09:47.221Z,105.83
2017-10-22T11:12:14.727Z,90.17
2017-10-22T11:14:42.227Z,102.73
2017-10-22T11:17:09.732Z,111.63
2017-10-22T11:19:37.982Z,109.10
2017-10-22T11:22:05.486Z,112.43
2017-10-22T11:24:32.996Z,126.23
2017-10-22T11:27:00.493Z,107.90
2017-10-22T11:29:27.987Z,108.50
2017-10-22T11:31:55.485Z,106.20
2017-10-22T11:34:22.987Z,107.97
2017-10-22T11:36:50.490Z,105.20
2017-10-22T11:39:17.982Z,107.83
2017-10-22T11:41:46.247Z,111.20
2017-10-22T11:44:14.511Z,109.67
2017-10-22T11:46:42.004Z,113.43
2017-10-22T11:49:09.524Z,110.47
2017-10-22T11:51:37.010Z,106.87
2017-10-22T11:54:05.262Z,103.80
2017-10-22T11:56:32.774Z,107.60
2017-10-22T11:59:00.264Z,97.80
2017-10-22T12:01:27.756Z,96.50
2017-10-22T12:03:56.014Z,100.60
2017-10-22T12:06:23.521Z,99.63
2017-10-22T12:08:51.011Z,99.70
2017-10-22T12:11:18.509Z,95.17
2017-10-22T12:13:46.761Z,89.17
2017-10-22T12:16:14.254Z,85.20
2017-10-22T12:18:42.515Z,78.13
2017-10-22T12:21:10.011Z,86.37
2017-10-22T12:23:37.498Z,85.50
2017-10-22T12:26:04.989Z,73.93
2017-10-22T12:28:32.469Z,81.53
2017-10-22T12:31:00.935Z,81.57
2017-10-22T12:33:29.947Z,81.17
2017-10-22T12:35:57.954Z,88.50
2017-10-22T12:38:26.317Z,87.33
2017-10-22T12:40:54.143Z,84.37
2017-10-22T12:43:22.029Z,85.23
2017-10-22T12:45:51.279Z,82.47
2017-10-22T12:48:19.185Z,86.37
2017-10-22T12:50:46.978Z,85.37
2017-10-22T12:53:14.655Z,86.37
2017-10-22T12:55:42.318Z,96.43
2017-10-22T12:58:10.562Z,85.00
2017-10-22T13:00:39.476Z,84.20
2017-10-22T13:03:07.273Z,92.70
2017-10-22T13:05:35.129Z,76.67
2017-10-22T13:08:02.991Z,79.97
2017-10-22T13:10:30.729Z,87.80
2017-10-22T13:12:59.115Z,78.27
2017-10-22T13:15:27.822Z,83.30
2017-10-22T13:17:55.901Z,88.57
2017-10-22T13:20:23.753Z,87.13
2017-10-22T13:22:51.478Z,80.50
2017-10-22T13:25:20.366Z,86.53
2017-10-22T13:27:47.985Z,94.50
2017-10-22T13:30:15.643Z,90.13
2017-10-22T13:32:43.157Z,85.97
2017-10-22T13:35:10.708Z,140.27
2017-10-22T13:37:38.317Z,152.83
2017-10-22T13:40:05.840Z,385.17
2017-10-22T13:42:33.339Z,407.43
2017-10-22T13:45:00.841Z,96.70
2017-10-22T13:47:28.340Z,102.53
2017-10-22T13:49:56.589Z,377.60
2017-10-22T13:52:24.078Z,334.33
2017-10-22T13:54:52.897Z,667.17
2017-10-22T13:57:20.898Z,437.40
2017-10-22T13:59:48.692Z,101.40
2017-10-22T14:02:16.961Z,402.50
2017-10-22T14:04:45.622Z,324.17
2017-10-22T14:07:13.868Z,93.67
2017-10-22T14:09:42.301Z,233.03
2017-10-22T14:12:10.680Z,139.53
2017-10-22T14:14:38.369Z,584.53
2017-10-22T14:17:07.687Z,459.17
2017-10-22T14:19:36.526Z,110.33
2017-10-22T14:22:04.670Z,444.83
2017-10-22T14:24:34.135Z,123.00
2017-10-22T14:27:03.270Z,81.30
2017-10-22T14:29:30.878Z,91.27
2017-10-22T14:31:59.141Z,124.47
2017-10-22T14:34:27.013Z,114.53
2017-10-22T14:36:55.187Z,441.73
2017-10-22T14:39:23.572Z,203.53
2017-10-22T14:41:51.057Z,465.93
2017-10-22T14:44:19.319Z,188.33
2017-10-22T14:46:47.583Z,123.90
2017-10-22T14:49:15.072Z,107.13
2017-10-22T14:51:42.566Z,245.70
2017-10-22T14:54:10.067Z,159.80
2017-10-22T14:56:37.549Z,543.33
2017-10-22T14:59:05.806Z,107.03
2017-10-22T15:01:33.294Z,394.37
2017-10-22T15:04:00.787Z,113.90
2017-10-22T15:06:28.277Z,281.50
2017-10-22T15:08:55.772Z,115.43
2017-10-22T15:11:23.259Z,96.03
2017-10-22T15:13:50.743Z,83.97
2017-10-22T15:16:21.799Z,88.23
2017-10-22T15:18:49.510Z,125.47
2017-10-22T15:21:17.038Z,92.00
2017-10-22T15:23:45.295Z,93.23
2017-10-22T15:26:12.851Z,93.83
2017-10-22T15:28:42.020Z,107.77
2017-10-22T15:31:09.624Z,87.67
2017-10-22T15:33:37.281Z,86.43
2017-10-22T15:36:05.002Z,93.57
2017-10-22T15:38:32.492Z,100.33
2017-10-22T15:40:59.977Z,86.90
2017-10-22T15:43:28.230Z,96.60
2017-10-22T15:45:55.827Z,95.00
2017-10-22T15:48:24.370Z,85.77
2017-10-22T15:50:51.859Z,84.90
2017-10-22T15:53:20.413Z,94.23
2017-10-22T15:55:48.553Z,83.43
2017-10-22T15:58:17.074Z,84.57
2017-10-22T16:00:44.829Z,84.53
2017-10-22T16:03:12.311Z,82.43
2017-10-22T16:05:39.797Z,88.37
2017-10-22T16:08:08.055Z,81.73
2017-10-22T16:10:36.317Z,83.83
2017-10-22T16:13:04.593Z,88.67
2017-10-22T16:15:32.082Z,85.07
2017-10-22T16:18:00.335Z,85.43
2017-10-22T16:20:27.946Z,90.73
2017-10-22T16:22:55.425Z,90.30
2017-10-22T16:25:23.046Z,87.40
2017-10-22T16:27:51.312Z,91.10
2017-10-22T16:30:19.576Z,95.40
2017-10-22T16:32:47.901Z,93.60
2017-10-22T16:35:15.773Z,91.17
2017-10-22T16:37:44.517Z,93.47
2017-10-22T16:40:13.654Z,100.77
2017-10-22T16:42:41.757Z,95.30
2017-10-22T16:45:09.395Z,100.00
2017-10-22T16:47:36.887Z,101.87
2017-10-22T16:50:04.379Z,104.50
2017-10-22T16:52:32.142Z,94.53
2017-10-22T16:55:00.386Z,96.40
2017-10-22T16:57:27.874Z,105.87
2017-10-22T16:59:56.134Z,112.50
2017-10-22T17:02:23.632Z,110.57
2017-10-22T17:04:51.131Z,108.80
2017-10-22T17:07:18.632Z,111.47
2017-10-22T17:09:46.906Z,111.70
2017-10-22T17:12:15.163Z,113.13
2017-10-22T17:14:42.659Z,121.03
2017-10-22T17:17:10.150Z,116.17
2017-10-22T17:19:37.638Z,117.70
2017-10-22T17:22:05.142Z,125.63
2017-10-22T17:24:32.640Z,119.80
2017-10-22T17:27:00.134Z,119.00
2017-10-22T17:29:28.396Z,116.33
2017-10-22T17:31:55.881Z,117.13
2017-10-22T17:34:24.138Z,118.00
2017-10-22T17:36:51.630Z,108.27
2017-10-22T17:39:19.135Z,112.70
2017-10-22T17:41:46.623Z,111.03
2017-10-22T17:44:14.879Z,137.10
2017-10-22T17:46:42.378Z,117.57
2017-10-22T17:49:10.626Z,132.83
2017-10-22T17:51:38.120Z,116.47
2017-10-22T17:54:05.611Z,109.80
2017-10-22T17:56:33.099Z,120.10
2017-10-22T17:59:00.618Z,117.97
2017-10-22T18:01:28.122Z,107.83
2017-10-22T18:03:55.639Z,112.13
2017-10-22T18:06:23.125Z,108.47
2017-10-22T18:08:50.625Z,114.17
2017-10-22T18:11:18.131Z,108.60
2017-10-22T18:13:45.638Z,115.33
2017-10-22T18:16:13.968Z,117.27
2017-10-22T18:18:41.483Z,117.80
2017-10-22T18:21:09.747Z,120.90
2017-10-22T18:26:20.174Z,114.17
2017-10-22T18:28:47.662Z,110.63
2017-10-22T18:31:15.140Z,116.07
2017-10-22T18:33:43.391Z,111.80
2017-10-22T18:36:10.878Z,108.83
2017-10-22T18:38:39.137Z,109.73
2017-10-22T18:41:06.625Z,109.40
2017-10-22T18:43:34.886Z,107.53
2017-10-22T18:46:03.258Z,110.30
2017-10-22T18:48:30.868Z,107.70
2017-10-22T18:50:58.381Z,109.70
2017-10-22T18:53:26.650Z,105.50
2017-10-22T18:55:54.147Z,107.57
2017-10-22T18:58:21.636Z,104.20
2017-10-22T19:00:49.149Z,104.53
2017-10-22T19:03:17.397Z,99.77
2017-10-22T19:05:44.887Z,106.00
2017-10-22T19:08:13.160Z,112.67
2017-10-22T19:10:41.413Z,205.73
2017-10-22T19:13:08.901Z,102.77
2017-10-22T19:15:37.156Z,151.53
2017-10-22T19:18:04.650Z,180.90
2017-10-22T19:20:32.906Z,316.33
2017-10-22T19:23:01.170Z,172.33
2017-10-22T19:25:28.671Z,247.43
2017-10-22T19:27:56.180Z,224.60
2017-10-22T19:30:23.682Z,145.50
2017-10-22T19:32:51.183Z,51.57
2017-10-22T19:35:18.683Z,43.90
2017-10-22T19:37:46.939Z,84.57
2017-10-22T19:40:14.438Z,61.43
2017-10-22T19:42:42.695Z,176.67
2017-10-22T19:45:10.950Z,470.50
2017-10-22T19:47:38.448Z,158.93
2017-10-22T19:50:06.711Z,299.90
2017-10-22T19:52:34.988Z,268.60
2017-10-22T19:55:03.237Z,64.20
2017-10-22T19:57:30.734Z,75.30
2017-10-22T19:59:58.992Z,20.27
2017-10-22T20:02:26.487Z,264.70
2017-10-22T20:04:54.058Z,716.73
2017-10-22T20:07:21.548Z,555.80
2017-10-22T20:09:49.092Z,113.90
2017-10-22T20:12:16.851Z,24.20
2017-10-22T20:14:44.491Z,187.77
2017-10-22T20:17:11.975Z,39.30
2017-10-22T20:19:39.461Z,59.67
2017-10-22T20:22:07.765Z,93.43
2017-10-22T20:24:36.025Z,45.20
2017-10-22T20:27:03.509Z,3.93
2017-10-22T20:29:31.753Z,82.07
2017-10-22T20:31:59.247Z,181.20
2017-10-22T20:34:27.494Z,31.07
2017-10-22T20:36:55.099Z,9.67
2017-10-22T20:39:22.582Z,4.57
2017-10-22T20:41:50.065Z,43.67
2017-10-22T20:44:17.571Z,220.07
2017-10-22T20:46:45.070Z,81.33
2017-10-22T20:49:12.568Z,179.03
2017-10-22T20:51:40.827Z,268.00
2017-10-22T20:54:08.301Z,46.73
2017-10-22T20:56:35.802Z,63.00
2017-10-22T20:59:03.288Z,2.63
2017-10-22T21:01:30.787Z,10.13
2017-10-22T21:03:59.047Z,7.70
2017-10-22T21:06:26.523Z,2.00
2017-10-22T21:08:54.771Z,18.10
2017-10-22T21:11:22.263Z,3.70
2017-10-22T21:13:50.521Z,10.07
2017-10-22T21:16:18.004Z,4.83
2017-10-22T21:18:46.238Z,2.20
2017-10-22T21:21:13.729Z,12.00
2017-10-22T21:23:41.986Z,66.53
2017-10-22T21:26:09.474Z,4.17
2017-10-22T21:28:37.776Z,5.03
2017-10-22T21:31:09.371Z,1.40
2017-10-22T21:33:42.627Z,4.80
2017-10-22T21:36:11.529Z,2.10
2017-10-22T21:38:39.230Z,1.40
2017-10-22T21:41:06.714Z,1.10
2017-10-22T21:43:36.256Z,1.20
2017-10-22T21:46:05.055Z,1.30
2017-10-22T21:48:32.598Z,1.20
2017-10-22T21:51:00.091Z,1.10
2017-10-22T21:53:27.574Z,1.57
2017-10-22T21:55:55.818Z,1.13
2017-10-22T21:58:23.412Z,1.30
2017-10-22T22:00:50.888Z,1.17
2017-10-22T22:03:19.140Z,1.47
2017-10-22T22:05:47.745Z,1.00
2017-10-22T22:08:16.703Z,1.60
2017-10-22T22:10:44.227Z,1.00
2017-10-22T22:13:11.780Z,1.10
2017-10-22T22:15:39.381Z,1.10
2017-10-22T22:18:06.856Z,1.63
2017-10-22T22:20:34.329Z,1.13
2017-10-22T22:23:02.751Z,1.13
2017-10-22T22:25:30.284Z,1.20
2017-10-22T22:27:58.534Z,1.00
2017-10-22T22:30:26.014Z,1.00
2017-10-22T22:32:54.259Z,1.10
2017-10-22T22:35:22.797Z,1.07
2017-10-22T22:37:50.566Z,1.53
2017-10-22T22:40:18.118Z,1.17
2017-10-22T22:42:45.726Z,1.60
2017-10-22T22:45:13.210Z,1.10
2017-10-22T22:47:41.682Z,1.47
2017-10-22T22:50:09.513Z,1.00
2017-10-22T22:52:37.012Z,1.40
2017-10-22T22:55:04.494Z,1.43
2017-10-22T22:57:32.733Z,1.10
2017-10-22T23:00:00.300Z,1.10
2017-10-22T23:02:27.855Z,1.10
2017-10-22T23:04:55.349Z,1.20
2017-10-22T23:07:23.743Z,1.20
2017-10-22T23:09:51.224Z,1.17
2017-10-22T23:12:18.904Z,1.30
2017-10-22T23:14:46.854Z,1.27
2017-10-22T23:17:14.539Z,1.10
2017-10-22T23:19:42.353Z,1.20
2017-10-22T23:22:14.178Z,1.20
2017-10-22T23:24:41.774Z,0.93
2017-10-22T23:27:10.694Z,1.30
2017-10-22T23:29:38.191Z,1.20
2017-10-22T23:32:05.751Z,0.90
2017-10-22T23:34:34.034Z,0.97
2017-10-22T23:37:01.558Z,1.13
2017-10-22T23:39:29.067Z,1.00
2017-10-22T23:41:57.430Z,1.20
2017-10-22T23:44:25.220Z,1.10
2017-10-22T23:46:53.551Z,1.00
2017-10-22T23:49:21.126Z,2.07
2017-10-22T23:51:48.673Z,1.30
2017-10-22T23:54:16.146Z,1.30
2017-10-22T23:56:43.652Z,1.50
2017-10-22T23:59:11.258Z,1.00
